Time;durP1;ratioP1;P1;durP2;ratioP2;P2;SDS_P1;SDS_P2;PMS_P1;PMS_P2;Temp;Humidity;BMP_temperature;BMP_pressure;BME280_temperature;BME280_humidity;BME280_pressure;Samples;Min_cycle;Max_cycle;Signal;HPM_P1;HPM_P2
2021/03/15 00:00:44;;;;;;;1999.90;999.90;;;19.70;95.20;;;;;;5136318;27;20158;-43
2021/03/15 00:03:12;;;;;;;1999.90;999.90;;;19.70;95.40;;;;;;5136187;27;20166;-43
2021/03/15 00:05:38;;;;;;;1999.90;999.90;;;19.70;95.20;;;;;;5136212;27;20636;-44
2021/03/15 00:08:06;;;;;;;1999.90;999.90;;;19.70;95.30;;;;;;5136122;27;20166;-44
2021/03/15 00:10:33;;;;;;;1999.90;999.90;;;19.70;95.30;;;;;;5135951;27;20519;-43
2021/03/15 00:13:00;;;;;;;1999.90;999.90;;;19.70;95.50;;;;;;5136051;27;20213;-44
2021/03/15 00:15:27;;;;;;;1999.90;999.90;;;19.70;95.40;;;;;;5135971;27;20181;-43
2021/03/15 00:17:54;;;;;;;1999.90;999.90;;;19.70;95.40;;;;;;5135948;27;20177;-44
2021/03/15 00:20:22;;;;;;;1999.90;999.90;;;19.70;95.30;;;;;;5135873;27;20259;-44
2021/03/15 00:22:50;;;;;;;1999.90;999.90;;;19.70;95.50;;;;;;5135649;27;20217;-44
2021/03/15 00:25:19;;;;;;;1999.90;999.90;;;19.60;95.70;;;;;;5135810;27;20163;-44
2021/03/15 00:27:46;;;;;;;1999.90;999.90;;;19.60;95.60;;;;;;5135802;27;20167;-44
2021/03/15 00:30:15;;;;;;;1999.90;999.90;;;19.60;95.50;;;;;;5135743;27;20620;-44
2021/03/15 00:32:44;;;;;;;1999.90;999.90;;;19.70;95.50;;;;;;5135441;27;20237;-44
2021/03/15 00:35:12;;;;;;;1999.90;999.90;;;19.70;95.50;;;;;;5135575;27;20181;-44
2021/03/15 00:37:40;;;;;;;1999.90;999.90;;;19.70;95.50;;;;;;5135546;27;20170;-45
2021/03/15 00:40:10;;;;;;;1999.90;999.90;;;19.70;95.80;;;;;;5135527;27;20170;-44
2021/03/15 00:42:38;;;;;;;1999.90;999.90;;;19.60;96.20;;;;;;5135592;27;20166;-44
2021/03/15 00:45:07;;;;;;;1999.90;999.90;;;19.60;96.40;;;;;;5135556;27;20512;-44
2021/03/15 00:47:34;;;;;;;1999.90;999.90;;;19.60;96.80;;;;;;5135484;27;20159;-44
2021/03/15 00:50:01;;;;;;;1999.90;999.90;;;19.60;96.90;;;;;;5135312;27;20163;-44
2021/03/15 00:52:28;;;;;;;1999.90;999.90;;;19.50;96.80;;;;;;5135195;27;20201;-43
2021/03/15 00:54:55;;;;;;;1999.90;999.90;;;19.50;96.90;;;;;;5135163;27;20174;-46
2021/03/15 00:57:21;;;;;;;1999.90;999.90;;;19.50;97.00;;;;;;5135159;27;20163;-44
2021/03/15 00:59:48;;;;;;;1999.90;999.90;;;19.40;97.30;;;;;;5135101;27;20159;-44
2021/03/15 01:02:15;;;;;;;1999.90;999.90;;;19.40;97.60;;;;;;5135044;27;20181;-59
2021/03/15 01:04:42;;;;;;;1999.90;999.90;;;19.30;98.20;;;;;;5135027;27;20162;-54
2021/03/15 01:07:12;;;;;;;1999.90;999.90;;;19.20;98.60;;;;;;5134904;27;20245;-44
2021/03/15 01:09:39;;;;;;;1999.90;999.90;;;19.30;98.70;;;;;;5134830;27;20192;-44
2021/03/15 01:12:07;;;;;;;1999.90;999.90;;;19.20;99.00;;;;;;5134852;27;20201;-45
2021/03/15 01:14:34;;;;;;;1999.90;999.90;;;19.20;99.10;;;;;;5135120;27;20522;-44
2021/03/15 01:17:01;;;;;;;1999.90;999.90;;;19.10;99.50;;;;;;5134764;27;20163;-44
2021/03/15 01:19:28;;;;;;;1999.90;999.90;;;19.10;99.20;;;;;;5134687;27;20681;-44
2021/03/15 01:21:55;;;;;;;1999.90;999.90;;;19.10;99.40;;;;;;5133947;27;20214;-43
2021/03/15 01:24:22;;;;;;;1999.90;999.90;;;19.10;99.70;;;;;;5134671;27;20197;-44
2021/03/15 01:26:49;;;;;;;1999.90;999.90;;;19.10;99.90;;;;;;5134643;27;20218;-43
2021/03/15 01:29:15;;;;;;;1999.90;999.90;;;19.10;99.90;;;;;;5134442;27;20170;-43
2021/03/15 01:31:42;;;;;;;1999.90;999.90;;;19.10;99.90;;;;;;5134424;27;20198;-43
2021/03/15 01:34:09;;;;;;;1999.90;999.90;;;19.10;99.50;;;;;;5134538;27;20225;-44
2021/03/15 01:36:36;;;;;;;1999.90;999.90;;;19.10;99.60;;;;;;5134519;27;20228;-44
2021/03/15 01:39:04;;;;;;;1999.90;999.90;;;19.10;99.90;;;;;;5134446;27;20500;-43
2021/03/15 01:41:32;;;;;;;1999.90;999.90;;;19.10;99.80;;;;;;5134378;27;20173;-58
2021/03/15 01:43:58;;;;;;;1999.90;999.90;;;19.10;99.80;;;;;;5134366;27;20620;-43
2021/03/15 01:46:25;;;;;;;1999.90;999.90;;;19.10;99.70;;;;;;5134323;27;20158;-43
2021/03/15 01:48:52;;;;;;;1999.90;999.90;;;19.10;99.40;;;;;;5134236;27;20635;-43
2021/03/15 01:51:19;;;;;;;1999.90;999.90;;;19.10;99.40;;;;;;5134146;27;20170;-44
2021/03/15 01:53:46;;;;;;;1999.90;999.90;;;19.10;99.50;;;;;;5134153;27;20254;-43
2021/03/15 01:56:13;;;;;;;1999.90;999.90;;;19.10;99.50;;;;;;5134134;27;20495;-43
2021/03/15 01:58:43;;;;;;;1999.90;999.90;;;19.10;99.50;;;;;;5134243;27;20171;-43
2021/03/15 02:01:10;;;;;;;1999.90;999.90;;;19.00;99.50;;;;;;5134312;27;20277;-44
2021/03/15 02:03:38;;;;;;;1999.90;999.90;;;19.10;99.90;;;;;;5134092;27;20200;-44
2021/03/15 02:06:05;;;;;;;1999.90;999.90;;;19.10;99.90;;;;;;5134004;27;20169;-43
2021/03/15 02:08:32;;;;;;;1999.90;999.90;;;19.10;99.90;;;;;;5133964;27;20287;-43
2021/03/15 02:11:20;;;;;;;1999.90;999.90;;;19.10;99.90;;;;;;5133944;27;20192;-47
2021/03/15 02:14:00;;;;;;;1999.90;999.90;;;19.10;99.90;;;;;;5134044;27;20162;-43
2021/03/15 02:16:41;;;;;;;1999.90;999.90;;;19.10;99.90;;;;;;5133906;27;20159;-43
2021/03/15 02:19:35;;;;;;;1999.90;999.90;;;19.00;99.90;;;;;;5133985;27;20238;-43
2021/03/15 02:22:13;;;;;;;1999.90;999.90;;;19.10;99.90;;;;;;5133709;28;20241;-57
2021/03/15 02:25:17;;;;;;;1999.90;999.90;;;19.10;99.90;;;;;;5133982;27;20174;-43
2021/03/15 02:28:25;;;;;;;1999.90;999.90;;;19.10;99.60;;;;;;5133983;28;20168;-43
2021/03/15 02:31:18;;;;;;;1999.90;999.90;;;19.20;99.30;;;;;;5112700;27;20182;-43
2021/03/15 02:34:22;;;;;;;1999.90;999.90;;;19.20;99.20;;;;;;5135355;27;20177;-43
2021/03/15 02:36:51;;;;;;;1999.90;999.90;;;19.20;99.40;;;;;;5137966;27;20162;-43
2021/03/15 02:39:23;;;;;;;1999.90;999.90;;;19.20;99.50;;;;;;5137865;27;20239;-43
2021/03/15 02:41:53;;;;;;;1999.90;999.90;;;19.20;99.70;;;;;;5137867;27;20189;-43
2021/03/15 02:44:21;;;;;;;1999.90;999.90;;;19.20;99.90;;;;;;5137793;27;20194;-43
2021/03/15 02:46:49;;;;;;;1999.90;999.90;;;19.10;98.70;;;;;;5138132;27;20597;-43
2021/03/15 02:49:17;;;;;;;1999.90;999.90;;;19.10;97.70;;;;;;5137846;27;20166;-58
2021/03/15 02:51:48;;;;;;;1999.90;999.90;;;18.80;96.70;;;;;;5137734;27;20193;-44
2021/03/15 02:54:17;;;;;;;1999.90;999.90;;;18.60;97.20;;;;;;5137754;27;20158;-43
2021/03/15 02:56:47;;;;;;;1999.90;999.90;;;18.50;97.60;;;;;;5137676;27;20226;-44
2021/03/15 02:59:16;;;;;;;1999.90;999.90;;;18.40;97.60;;;;;;5137603;27;20159;-43
2021/03/15 03:01:45;;;;;;;1999.90;999.90;;;18.40;97.80;;;;;;5137560;27;20158;-43
2021/03/15 03:04:13;;;;;;;1999.90;999.90;;;18.20;97.70;;;;;;5137537;27;20195;-46
2021/03/15 03:06:43;;;;;;;1999.90;999.90;;;18.20;97.90;;;;;;5137326;27;20170;-43
2021/03/15 03:09:14;;;;;;;1999.90;999.90;;;18.20;98.10;;;;;;5137259;27;20162;-45
2021/03/15 03:11:42;;;;;;;1999.90;999.90;;;18.10;98.20;;;;;;5137188;27;20186;-44
2021/03/15 03:14:12;;;;;;;1999.90;999.90;;;18.10;98.30;;;;;;5137150;27;20600;-43
2021/03/15 03:16:41;;;;;;;1999.90;999.90;;;18.10;98.40;;;;;;5137080;27;20174;-44
2021/03/15 03:19:15;;;;;;;1999.90;999.90;;;18.00;98.20;;;;;;5137125;27;20575;-44
2021/03/15 03:21:43;;;;;;;1999.90;999.90;;;18.00;98.50;;;;;;5136907;27;20158;-43
2021/03/15 03:24:11;;;;;;;1999.90;999.90;;;18.00;98.80;;;;;;5137036;27;20636;-44
2021/03/15 03:26:39;;;;;;;1999.90;999.90;;;17.90;98.70;;;;;;5136998;27;20159;-45
2021/03/15 03:29:10;;;;;;;1999.90;999.90;;;17.90;98.80;;;;;;5137169;27;20215;-43
2021/03/15 03:31:40;;;;;;;1999.90;999.90;;;18.00;99.00;;;;;;5136820;27;20186;-43
2021/03/15 03:34:08;;;;;;;1999.90;999.90;;;18.00;99.00;;;;;;5136860;27;20640;-43
2021/03/15 03:36:35;;;;;;;1999.90;999.90;;;17.90;99.20;;;;;;5136748;27;20686;-44
2021/03/15 03:39:04;;;;;;;1999.90;999.90;;;17.90;99.30;;;;;;5136831;27;20177;-44
2021/03/15 03:41:31;;;;;;;1999.90;999.90;;;17.80;99.40;;;;;;5136548;27;20219;-43
2021/03/15 03:43:58;;;;;;;1999.90;999.90;;;17.80;99.40;;;;;;5136160;27;20173;-43
2021/03/15 03:46:25;;;;;;;1999.90;999.90;;;17.90;99.50;;;;;;5136589;27;20254;-43
2021/03/15 03:48:52;;;;;;;1999.90;999.90;;;17.90;99.30;;;;;;5136416;27;20643;-44
2021/03/15 03:51:24;;;;;;;1999.90;999.90;;;17.90;99.20;;;;;;5136543;27;20166;-43
2021/03/15 03:53:59;;;;;;;1999.90;999.90;;;17.90;99.30;;;;;;5136499;27;20220;-44
2021/03/15 03:56:36;;;;;;;1999.90;999.90;;;17.90;99.50;;;;;;5136473;27;20158;-43
2021/03/15 03:59:04;;;;;;;1999.90;999.90;;;17.90;99.30;;;;;;5136324;27;20146;-43
2021/03/15 04:01:41;;;;;;;1999.90;999.90;;;18.00;99.50;;;;;;5136203;27;20231;-43
2021/03/15 04:04:10;;;;;;;1999.90;999.90;;;18.00;99.40;;;;;;5136237;27;20173;-61
2021/03/15 04:06:39;;;;;;;1999.90;999.90;;;18.00;99.50;;;;;;5136226;27;20673;-45
2021/03/15 04:09:18;;;;;;;1999.90;999.90;;;18.10;99.40;;;;;;5136096;27;20166;-45
2021/03/15 04:11:53;;;;;;;1999.90;999.90;;;18.10;99.30;;;;;;5136140;27;20198;-46
2021/03/15 04:14:34;;;;;;;1999.90;999.90;;;18.10;99.30;;;;;;5136077;27;20600;-61
2021/03/15 04:17:02;;;;;;;1999.90;999.90;;;18.10;99.40;;;;;;5136116;27;20242;-45
2021/03/15 04:19:37;;;;;;;1999.90;999.90;;;18.10;99.40;;;;;;5135892;27;20170;-45
2021/03/15 04:22:09;;;;;;;1999.90;999.90;;;18.10;99.50;;;;;;5135687;27;20285;-51
2021/03/15 04:24:38;;;;;;;1999.90;999.90;;;18.20;99.40;;;;;;5135868;27;20163;-56
2021/03/15 04:27:06;;;;;;;1999.90;999.90;;;18.20;99.20;;;;;;5135760;27;20170;-43
2021/03/15 04:29:34;;;;;;;1999.90;999.90;;;18.20;99.10;;;;;;5135675;27;20175;-42
2021/03/15 04:32:06;;;;;;;1999.90;999.90;;;18.20;99.30;;;;;;5135548;27;20282;-44
2021/03/15 04:34:34;;;;;;;1999.90;999.90;;;18.30;98.70;;;;;;5134391;27;20232;-50
2021/03/15 04:37:03;;;;;;;1999.90;999.90;;;18.40;98.70;;;;;;5135513;27;20643;-44
2021/03/15 04:39:34;;;;;;;1999.90;999.90;;;18.30;98.70;;;;;;5135598;27;20166;-45
2021/03/15 04:42:01;;;;;;;1999.90;999.90;;;18.30;99.20;;;;;;5135766;27;20166;-45
2021/03/15 04:44:29;;;;;;;1999.90;999.90;;;18.30;99.00;;;;;;5135557;27;20201;-44
2021/03/15 04:46:56;;;;;;;1999.90;999.90;;;18.30;98.90;;;;;;5135456;27;20219;-45
2021/03/15 04:49:24;;;;;;;1999.90;999.90;;;18.30;98.80;;;;;;5135610;27;20192;-44
2021/03/15 04:51:52;;;;;;;1999.90;999.90;;;18.30;98.90;;;;;;5135259;27;20190;-60
2021/03/15 04:54:19;;;;;;;1999.90;999.90;;;18.30;99.00;;;;;;5135241;27;20541;-44
2021/03/15 04:56:48;;;;;;;1999.90;999.90;;;18.30;99.50;;;;;;5134232;27;20174;-44
2021/03/15 04:59:17;;;;;;;1999.90;999.90;;;18.30;99.30;;;;;;5135188;27;20159;-45
2021/03/15 05:01:44;;;;;;;1999.90;999.90;;;18.20;99.30;;;;;;5135104;27;20255;-45
2021/03/15 05:04:14;;;;;;;1999.90;999.90;;;18.20;99.40;;;;;;5134974;27;20195;-44
2021/03/15 05:06:42;;;;;;;1999.90;999.90;;;18.20;99.40;;;;;;5134890;27;20562;-52
2021/03/15 05:09:13;;;;;;;1999.90;999.90;;;18.20;99.40;;;;;;5134837;27;20170;-46
2021/03/15 05:11:42;;;;;;;1999.90;999.90;;;18.20;99.50;;;;;;5134730;27;20273;-45
2021/03/15 05:14:11;;;;;;;1999.90;999.90;;;18.30;99.40;;;;;;5134760;27;20226;-45
2021/03/15 05:16:41;;;;;;;1999.90;999.90;;;18.30;99.40;;;;;;5134636;27;20537;-45
2021/03/15 05:19:10;;;;;;;1999.90;999.90;;;18.20;99.60;;;;;;5134973;27;20621;-46
2021/03/15 05:21:39;;;;;;;1999.90;999.90;;;18.20;99.90;;;;;;5134469;27;20158;-53
2021/03/15 05:24:08;;;;;;;1999.90;999.90;;;18.20;99.90;;;;;;5134548;27;20541;-59
2021/03/15 05:26:37;;;;;;;1999.90;999.90;;;18.20;99.60;;;;;;5134490;27;20692;-45
2021/03/15 05:29:10;;;;;;;1999.90;999.90;;;18.10;99.90;;;;;;5134395;27;20170;-51
2021/03/15 05:31:45;;;;;;;1999.90;999.90;;;18.20;99.90;;;;;;5134181;27;20147;-48
2021/03/15 05:34:12;;;;;;;1999.90;999.90;;;18.20;99.50;;;;;;5134054;27;20616;-54
2021/03/15 05:36:42;;;;;;;1999.90;999.90;;;18.20;99.60;;;;;;5134328;27;20231;-46
2021/03/15 05:39:09;;;;;;;1999.90;999.90;;;18.20;99.50;;;;;;5134110;27;20209;-53
2021/03/15 05:42:07;;;;;;;1999.90;999.90;;;18.20;99.50;;;;;;5133939;27;20174;-60
2021/03/15 05:45:00;;;;;;;1999.90;999.90;;;18.20;99.50;;;;;;5134191;27;20224;-56
2021/03/15 05:47:42;;;;;;;1999.90;999.90;;;18.30;99.20;;;;;;5134191;27;20162;-46
2021/03/15 05:50:24;;;;;;;1999.90;999.90;;;18.30;98.70;;;;;;5134111;27;20161;-47
2021/03/15 05:53:09;;;;;;;1999.90;999.90;;;18.30;98.90;;;;;;5133605;27;20209;-45
2021/03/15 05:55:52;;;;;;;1999.90;999.90;;;18.40;98.90;;;;;;5134022;27;20166;-54
2021/03/15 05:58:34;;;;;;;1999.90;999.90;;;18.40;99.10;;;;;;5133834;27;20672;-57
2021/03/15 06:01:04;;;;;;;1999.90;999.90;;;18.40;99.00;;;;;;5133047;27;20174;-49
2021/03/15 06:04:01;;;;;;;1999.90;999.90;;;18.50;98.90;;;;;;5133634;27;20174;-48
2021/03/15 06:06:38;;;;;;;1999.90;999.90;;;18.60;97.90;;;;;;5133369;27;20169;-53
2021/03/15 06:09:07;;;;;;;1999.90;999.90;;;18.60;98.60;;;;;;5132433;27;20155;-54
2021/03/15 06:11:44;;;;;;;1999.90;999.90;;;18.70;98.80;;;;;;5133296;27;20250;-49
2021/03/15 06:14:13;;;;;;;1999.90;999.90;;;18.80;98.10;;;;;;5133255;27;20204;-58
2021/03/15 06:16:42;;;;;;;1999.90;999.90;;;19.00;98.50;;;;;;5131676;28;20689;-58
2021/03/15 06:19:09;;;;;;;1999.90;999.90;;;18.90;98.20;;;;;;5132918;27;20178;-59
2021/03/15 06:21:36;;;;;;;1999.90;999.90;;;19.00;98.50;;;;;;5131575;27;20182;-53
2021/03/15 06:24:03;;;;;;;1999.90;999.90;;;19.00;98.40;;;;;;5132840;27;20200;-46
2021/03/15 06:26:30;;;;;;;1999.90;999.90;;;19.10;98.50;;;;;;5133135;27;20212;-46
2021/03/15 06:29:05;;;;;;;1999.90;999.90;;;19.30;97.90;;;;;;5133135;27;20178;-50
2021/03/15 06:31:35;;;;;;;1999.90;999.90;;;19.40;97.20;;;;;;5132915;27;20507;-50
2021/03/15 06:34:03;;;;;;;1999.90;999.90;;;19.60;97.00;;;;;;5131768;28;20166;-48
2021/03/15 06:36:30;;;;;;;1999.90;999.90;;;19.70;96.60;;;;;;5133378;27;20531;-55
2021/03/15 06:38:58;;;;;;;1999.90;999.90;;;20.00;96.00;;;;;;5132954;27;20178;-55
2021/03/15 06:41:28;;;;;;;1999.90;999.90;;;20.00;95.50;;;;;;5133191;27;20174;-49
2021/03/15 06:43:55;;;;;;;1999.90;999.90;;;20.00;96.40;;;;;;5131373;27;20264;-52
2021/03/15 06:46:22;;;;;;;1999.90;999.90;;;20.00;96.40;;;;;;5124736;28;20162;-47
2021/03/15 06:48:48;;;;;;;1999.90;999.90;;;20.20;96.30;;;;;;5123523;27;20171;-51
2021/03/15 06:51:15;;;;;;;1999.90;999.90;;;20.10;96.20;;;;;;5112747;28;20159;-44
2021/03/15 06:53:43;;;;;;;1999.90;999.90;;;20.40;95.80;;;;;;5128231;28;20236;-58
2021/03/15 06:56:24;;;;;;;1999.90;999.90;;;20.30;95.60;;;;;;5132727;27;20174;-47
2021/03/15 06:58:56;;;;;;;1999.90;999.90;;;20.40;95.30;;;;;;5132737;27;20162;-53
2021/03/15 07:01:28;;;;;;;1999.90;999.90;;;20.40;95.00;;;;;;5132439;27;20307;-57
2021/03/15 07:04:08;;;;;;;1999.90;999.90;;;20.40;94.20;;;;;;5133391;27;20162;-51
2021/03/15 07:06:37;;;;;;;1999.90;999.90;;;20.50;94.30;;;;;;5131672;28;20246;-54
2021/03/15 07:09:12;;;;;;;1999.90;999.90;;;20.60;94.10;;;;;;5132334;27;20189;-61
2021/03/15 07:11:40;;;;;;;1999.90;999.90;;;20.70;94.30;;;;;;5132718;27;20181;-58
2021/03/15 07:14:06;;;;;;;1999.90;999.90;;;20.60;94.10;;;;;;5132617;27;20178;-54
2021/03/15 07:16:34;;;;;;;1999.90;999.90;;;20.50;91.70;;;;;;5132663;27;20170;-45
2021/03/15 07:19:21;;;;;;;1999.90;999.90;;;20.60;91.60;;;;;;5132625;27;20270;-46
2021/03/15 07:21:48;;;;;;;1999.90;999.90;;;20.60;92.10;;;;;;5136394;27;20211;-45
2021/03/15 07:24:15;;;;;;;1999.90;999.90;;;20.70;91.50;;;;;;5136219;27;20163;-44
2021/03/15 07:26:44;;;;;;;1999.90;999.90;;;21.00;91.50;;;;;;5136395;27;20566;-60
2021/03/15 07:29:16;;;;;;;1999.90;999.90;;;21.20;90.50;;;;;;5136180;27;20159;-44
2021/03/15 07:31:47;;;;;;;1999.90;999.90;;;21.20;90.70;;;;;;5136452;27;20167;-48
2021/03/15 07:34:19;;;;;;;1999.90;999.90;;;21.30;89.40;;;;;;5135674;27;20175;-44
2021/03/15 07:36:57;;;;;;;1999.90;999.90;;;21.40;88.80;;;;;;5135763;27;20474;-52
2021/03/15 07:39:28;;;;;;;1999.90;999.90;;;21.50;88.30;;;;;;5114790;28;20237;-54
2021/03/15 07:41:57;;;;;;;1999.90;999.90;;;21.40;89.10;;;;;;5120402;27;20163;-51
2021/03/15 07:44:34;;;;;;;1999.90;999.90;;;21.50;87.90;;;;;;5135791;27;20198;-51
2021/03/15 07:47:06;;;;;;;1999.90;999.90;;;21.50;90.00;;;;;;5135452;27;20166;-44
2021/03/15 07:49:39;;;;;;;1999.90;999.90;;;21.60;89.60;;;;;;5135095;27;20250;-46
2021/03/15 07:52:12;;;;;;;1999.90;999.90;;;21.60;88.40;;;;;;5136127;27;20202;-44
2021/03/15 07:54:44;;;;;;;1999.90;999.90;;;21.60;86.10;;;;;;5135878;27;20201;-44
2021/03/15 07:57:28;;;;;;;1999.90;999.90;;;21.60;84.20;;;;;;5135356;27;20173;-44
2021/03/15 07:59:56;;;;;;;1999.90;999.90;;;21.50;83.70;;;;;;5135878;27;20174;-45
2021/03/15 08:02:24;;;;;;;1999.90;999.90;;;21.40;83.30;;;;;;5135705;27;20200;-49
2021/03/15 08:04:53;;;;;;;1999.90;999.90;;;21.50;84.50;;;;;;5135638;27;20254;-45
2021/03/15 08:07:22;;;;;;;1999.90;999.90;;;21.50;82.30;;;;;;5134948;27;20198;-52
2021/03/15 08:09:56;;;;;;;1999.90;999.90;;;21.50;83.00;;;;;;5134954;27;20640;-51
2021/03/15 08:12:27;;;;;;;1999.90;999.90;;;21.60;80.40;;;;;;5130183;27;20296;-66
2021/03/15 08:15:08;;;;;;;1999.90;999.90;;;21.60;81.00;;;;;;5135531;27;20151;-45
2021/03/15 08:17:56;;;;;;;1999.90;999.90;;;21.60;82.40;;;;;;5129687;27;20155;-46
2021/03/15 08:20:25;;;;;;;1999.90;999.90;;;21.40;83.10;;;;;;5135261;27;20628;-51
2021/03/15 08:22:58;;;;;;;1999.90;999.90;;;21.30;82.90;;;;;;5134463;27;20699;-42
2021/03/15 08:25:25;;;;;;;1999.90;999.90;;;21.40;86.30;;;;;;5135420;27;20147;-47
2021/03/15 08:27:55;;;;;;;1999.90;999.90;;;21.40;90.30;;;;;;5135278;27;20167;-56
2021/03/15 08:30:26;;;;;;;1999.90;999.90;;;21.30;90.70;;;;;;5135248;27;20150;-49
2021/03/15 08:32:54;;;;;;;1999.90;999.90;;;21.30;90.70;;;;;;5135043;27;20258;-43
2021/03/15 08:35:21;;;;;;;1999.90;999.90;;;21.40;90.10;;;;;;5135142;27;20672;-44
2021/03/15 08:37:57;;;;;;;1999.90;999.90;;;21.50;90.50;;;;;;5134708;27;20544;-44
2021/03/15 08:40:45;;;;;;;1999.90;999.90;;;21.20;91.30;;;;;;5135058;27;20146;-46
2021/03/15 08:43:23;;;;;;;1999.90;999.90;;;21.30;91.50;;;;;;5134498;27;20177;-46
2021/03/15 08:46:14;;;;;;;1999.90;999.90;;;21.50;91.30;;;;;;5134857;27;20173;-47
2021/03/15 08:48:41;;;;;;;1999.90;999.90;;;22.00;90.50;;;;;;5125149;27;20182;-56
2021/03/15 08:51:12;;;;;;;1999.90;999.90;;;22.10;90.00;;;;;;5134993;27;20280;-46
2021/03/15 08:53:39;;;;;;;1999.90;999.90;;;22.20;89.80;;;;;;5128504;27;20214;-50
2021/03/15 08:56:12;;;;;;;1999.90;999.90;;;22.10;89.80;;;;;;5121773;27;20174;-56
2021/03/15 08:58:41;;;;;;;1999.90;999.90;;;22.20;89.80;;;;;;5134395;27;20667;-49
2021/03/15 09:01:10;;;;;;;1999.90;999.90;;;22.20;89.70;;;;;;5134445;27;20257;-46
2021/03/15 09:03:53;;;;;;;1999.90;999.90;;;22.30;87.90;;;;;;5134273;27;20186;-48
2021/03/15 09:06:37;;;;;;;1999.90;999.90;;;22.30;87.80;;;;;;5134220;27;20237;-50
2021/03/15 09:09:04;;;;;;;1999.90;999.90;;;22.20;88.70;;;;;;5134213;27;20151;-51
2021/03/15 09:11:45;;;;;;;1999.90;999.90;;;22.10;89.80;;;;;;5134330;27;20253;-54
2021/03/15 09:17:15;;;;;;;1999.90;999.90;;;22.20;88.70;;;;;;5134475;27;20171;-51
2021/03/15 09:19:49;;;;;;;1999.90;999.90;;;22.40;89.10;;;;;;5113906;28;20154;-42
2021/03/15 09:22:26;;;;;;;1999.90;999.90;;;22.20;88.60;;;;;;5113466;28;20219;-56
2021/03/15 09:25:07;;;;;;;1999.90;999.90;;;22.10;90.00;;;;;;5113511;28;20174;-59
2021/03/15 09:27:42;;;;;;;1999.90;999.90;;;22.30;89.20;;;;;;5113630;28;20175;-54
2021/03/15 09:30:14;;;;;;;1999.90;999.90;;;22.50;88.50;;;;;;5119957;27;20174;-59
2021/03/15 09:32:48;;;;;;;1999.90;999.90;;;22.50;87.80;;;;;;5119176;27;20233;-61
2021/03/15 09:35:25;;;;;;;1999.90;999.90;;;22.50;86.60;;;;;;5134209;27;20181;-59
2021/03/15 09:38:01;;;;;;;1999.90;999.90;;;22.50;87.60;;;;;;5133812;27;20154;-52
2021/03/15 09:40:29;;;;;;;1999.90;999.90;;;22.40;87.70;;;;;;5133365;27;20190;-45
2021/03/15 09:42:57;;;;;;;1999.90;999.90;;;22.10;88.00;;;;;;5133149;27;20206;-47
2021/03/15 09:45:32;;;;;;;1999.90;999.90;;;21.90;89.70;;;;;;5133742;27;20216;-47
2021/03/15 09:47:59;;;;;;;1999.90;999.90;;;22.10;90.00;;;;;;5133363;27;20529;-47
2021/03/15 09:50:32;;;;;;;1999.90;999.90;;;21.90;90.00;;;;;;5133575;27;20270;-59
2021/03/15 09:53:13;;;;;;;1999.90;999.90;;;21.80;90.20;;;;;;5129486;27;20205;-62
2021/03/15 09:55:40;;;;;;;1999.90;999.90;;;22.20;89.50;;;;;;5133599;27;20159;-65
2021/03/15 09:58:09;;;;;;;1999.90;999.90;;;22.30;89.00;;;;;;5132842;27;20641;-59
2021/03/15 10:00:37;;;;;;;1999.90;999.90;;;22.50;86.60;;;;;;5133377;27;20167;-50
2021/03/15 10:03:05;;;;;;;1999.90;999.90;;;22.40;85.70;;;;;;5133617;27;20498;-47
2021/03/15 10:05:32;;;;;;;1999.90;999.90;;;22.30;86.30;;;;;;5132532;27;20197;-61
2021/03/15 10:08:00;;;;;;;1999.90;999.90;;;22.00;87.20;;;;;;5132764;27;20189;-50
2021/03/15 10:10:27;;;;;;;1999.90;999.90;;;21.90;88.30;;;;;;5129946;27;20574;-44
2021/03/15 10:13:20;;;;;;;1999.90;999.90;;;21.90;89.00;;;;;;5132046;27;20202;-50
2021/03/15 10:15:46;;;;;;;1999.90;999.90;;;21.80;88.80;;;;;;5130655;27;20186;-45
2021/03/15 10:18:22;;;;;;;1999.90;999.90;;;21.90;87.50;;;;;;5132826;27;20204;-43
2021/03/15 10:20:50;;;;;;;1999.90;999.90;;;21.80;87.60;;;;;;5133765;27;20166;-58
2021/03/15 10:23:23;;;;;;;1999.90;999.90;;;21.90;87.50;;;;;;5132978;27;20659;-60
2021/03/15 10:26:01;;;;;;;1999.90;999.90;;;22.00;86.80;;;;;;5128206;27;20174;-60
2021/03/15 10:28:30;;;;;;;1999.90;999.90;;;22.00;87.10;;;;;;5129216;28;20222;-59
2021/03/15 10:30:57;;;;;;;1999.90;999.90;;;22.00;87.70;;;;;;5132986;27;20211;-59
2021/03/15 10:33:25;;;;;;;1999.90;999.90;;;22.10;86.20;;;;;;5132982;27;20191;-62
2021/03/15 10:35:53;;;;;;;1999.90;999.90;;;22.40;86.30;;;;;;5133552;27;20167;-50
2021/03/15 10:38:21;;;;;;;1999.90;999.90;;;22.30;85.30;;;;;;5133175;27;20170;-42
2021/03/15 10:40:50;;;;;;;1999.90;999.90;;;22.40;85.90;;;;;;5131883;28;20199;-62
2021/03/15 10:43:24;;;;;;;1999.90;999.90;;;22.60;85.20;;;;;;5133669;27;20162;-58
2021/03/15 10:45:52;;;;;;;1999.90;999.90;;;22.90;83.80;;;;;;5133092;27;20175;-47
2021/03/15 10:48:25;;;;;;;1999.90;999.90;;;23.30;83.20;;;;;;5132841;27;20174;-55
2021/03/15 10:50:55;;;;;;;1999.90;999.90;;;23.50;81.90;;;;;;5133081;27;20159;-51
2021/03/15 10:53:24;;;;;;;1999.90;999.90;;;23.60;79.70;;;;;;5131749;27;20632;-46
2021/03/15 10:55:51;;;;;;;1999.90;999.90;;;23.80;79.60;;;;;;5136492;27;20629;-47
2021/03/15 10:58:19;;;;;;;1999.90;999.90;;;24.00;79.10;;;;;;5137120;27;20170;-46
2021/03/15 11:00:51;;;;;;;1999.90;999.90;;;24.50;76.90;;;;;;5136068;27;20604;-63
2021/03/15 11:03:26;;;;;;;1999.90;999.90;;;24.70;75.60;;;;;;5134440;27;20168;-53
2021/03/15 11:06:11;;;;;;;1999.90;999.90;;;25.00;74.50;;;;;;5136618;27;20250;-58
2021/03/15 11:08:38;;;;;;;1999.90;999.90;;;25.20;73.40;;;;;;5136432;27;20155;-59
2021/03/15 11:11:17;;;;;;;1999.90;999.90;;;25.70;70.00;;;;;;5136699;27;20624;-42
2021/03/15 11:13:45;;;;;;;1999.90;999.90;;;26.30;67.00;;;;;;5136114;27;20315;-44
2021/03/15 11:16:28;;;;;;;1999.90;999.90;;;26.60;64.60;;;;;;5136229;27;20643;-43
2021/03/15 11:19:15;;;;;;;1999.90;999.90;;;26.90;63.40;;;;;;5136130;27;20179;-42
2021/03/15 11:21:43;;;;;;;1999.90;999.90;;;26.90;62.90;;;;;;5135917;27;20162;-56
2021/03/15 11:24:11;;;;;;;1999.90;999.90;;;26.40;63.00;;;;;;5136843;27;20197;-49
2021/03/15 11:26:46;;;;;;;1999.90;999.90;;;26.30;62.00;;;;;;5136320;27;20173;-49
2021/03/15 11:29:13;;;;;;;1999.90;999.90;;;26.30;63.30;;;;;;5136109;27;20193;-45
2021/03/15 11:31:48;;;;;;;1999.90;999.90;;;26.30;61.80;;;;;;5136377;27;20174;-46
2021/03/15 11:34:24;;;;;;;1999.90;999.90;;;26.30;63.00;;;;;;5126871;27;20677;-55
2021/03/15 11:36:52;;;;;;;1999.90;999.90;;;26.20;63.10;;;;;;5115908;28;20186;-50
2021/03/15 11:39:20;;;;;;;1999.90;999.90;;;26.20;62.50;;;;;;5128177;27;20212;-45
2021/03/15 11:41:47;;;;;;;1999.90;999.90;;;26.10;63.70;;;;;;5136260;27;20173;-44
2021/03/15 11:44:15;;;;;;;1999.90;999.90;;;25.90;64.30;;;;;;5135775;27;20179;-41
2021/03/15 11:46:42;;;;;;;1999.90;999.90;;;26.00;64.00;;;;;;5132235;27;20174;-58
2021/03/15 11:49:09;;;;;;;1999.90;999.90;;;26.30;62.10;;;;;;5136033;27;20530;-46
2021/03/15 11:51:36;;;;;;;1999.90;999.90;;;26.60;60.40;;;;;;5136187;27;20245;-47
2021/03/15 11:54:02;;;;;;;1999.90;999.90;;;26.30;60.80;;;;;;5135707;27;20175;-47
2021/03/15 11:56:29;;;;;;;1999.90;999.90;;;26.40;60.10;;;;;;5135941;27;20170;-48
2021/03/15 11:58:56;;;;;;;1999.90;999.90;;;26.30;60.20;;;;;;5136009;27;20198;-48
2021/03/15 12:01:22;;;;;;;1999.90;999.90;;;26.30;59.40;;;;;;5135857;27;20190;-48
2021/03/15 12:03:49;;;;;;;1999.90;999.90;;;25.60;58.80;;;;;;5135800;27;20242;-45
2021/03/15 12:06:16;;;;;;;1999.90;999.90;;;25.40;61.00;;;;;;5134967;27;20270;-46
2021/03/15 12:08:43;;;;;;;1999.90;999.90;;;25.30;61.40;;;;;;5135645;27;20162;-44
2021/03/15 12:11:09;;;;;;;1999.90;999.90;;;25.10;61.10;;;;;;5135171;27;20177;-48
2021/03/15 12:13:36;;;;;;;1999.90;999.90;;;24.70;63.00;;;;;;5132392;27;20194;-44
2021/03/15 12:16:03;;;;;;;1999.90;999.90;;;24.50;64.80;;;;;;5135389;27;20580;-44
2021/03/15 12:18:30;;;;;;;1999.90;999.90;;;24.60;63.70;;;;;;5135226;27;20183;-44
2021/03/15 12:20:56;;;;;;;1999.90;999.90;;;24.30;63.30;;;;;;5135269;27;20217;-49